createdAt,value
2022-11-29T00:01:30.736Z,10.75
2022-11-29T00:03:57.881Z,11.55
2022-11-29T00:06:30.534Z,10.63
2022-11-29T00:09:00.315Z,10.40
2022-11-29T00:11:49.034Z,10.10
2022-11-29T00:14:18.038Z,10.48
2022-11-29T00:16:45.298Z,11.18
2022-11-29T00:19:12.878Z,10.55
2022-11-29T00:21:39.774Z,11.32
2022-11-29T00:24:06.788Z,11.02
2022-11-29T00:26:33.569Z,12.43
2022-11-29T00:29:00.499Z,12.32
2022-11-29T00:31:30.411Z,11.23
2022-11-29T00:33:58.800Z,11.77
2022-11-29T00:39:01.692Z,10.90
2022-11-29T00:41:28.379Z,12.60
2022-11-29T00:43:55.334Z,11.98
2022-11-29T00:46:22.394Z,11.40
2022-11-29T00:48:49.166Z,12.55
2022-11-29T00:51:15.883Z,11.35
2022-11-29T00:53:42.631Z,11.00
2022-11-29T00:56:09.391Z,12.48
2022-11-29T00:58:37.436Z,11.65
2022-11-29T01:01:04.917Z,11.32
2022-11-29T01:03:32.211Z,11.57
2022-11-29T01:06:11.093Z,11.95
2022-11-29T01:08:38.487Z,11.50
2022-11-29T01:11:24.342Z,12.10
2022-11-29T01:13:54.154Z,11.32
2022-11-29T01:16:20.960Z,11.95
2022-11-29T01:18:47.942Z,11.00
2022-11-29T01:21:17.713Z,12.60
2022-11-29T01:23:45.743Z,11.85
2022-11-29T01:26:14.991Z,12.10
2022-11-29T01:28:43.351Z,12.15
2022-11-29T01:31:13.030Z,11.95
2022-11-29T01:33:40.371Z,11.48
2022-11-29T01:36:08.740Z,13.23
2022-11-29T01:38:36.397Z,12.43
2022-11-29T01:41:09.528Z,12.68
2022-11-29T01:44:11.862Z,13.25
2022-11-29T01:46:46.796Z,11.93
2022-11-29T01:49:18.638Z,11.32
2022-11-29T01:51:56.351Z,11.00
2022-11-29T01:54:23.135Z,11.95
2022-11-29T01:56:51.732Z,11.02
2022-11-29T01:59:22.535Z,12.05
2022-11-29T02:01:49.398Z,11.45
2022-11-29T02:04:17.882Z,11.65
2022-11-29T02:06:45.714Z,10.82
2022-11-29T02:09:19.789Z,11.50
2022-11-29T02:12:19.766Z,12.20
2022-11-29T02:14:57.228Z,11.93
2022-11-29T02:17:34.759Z,12.18
2022-11-29T02:20:20.024Z,11.15
2022-11-29T02:23:16.139Z,11.93
2022-11-29T02:25:53.217Z,12.32
2022-11-29T02:28:19.797Z,12.02
2022-11-29T02:31:02.147Z,12.10
2022-11-29T02:33:56.515Z,11.98
2022-11-29T02:36:38.818Z,12.65
2022-11-29T02:39:11.648Z,11.93
2022-11-29T02:42:04.172Z,11.90
2022-11-29T02:44:56.120Z,12.02
2022-11-29T02:47:31.851Z,11.00
2022-11-29T02:50:13.111Z,11.93
2022-11-29T02:53:10.700Z,11.25
2022-11-29T02:55:57.770Z,11.38
2022-11-29T02:58:37.693Z,12.05
2022-11-29T03:01:26.943Z,11.32
2022-11-29T03:04:35.887Z,10.82
2022-11-29T03:07:20.613Z,12.00
2022-11-29T03:10:10.284Z,11.35
2022-11-29T03:12:52.062Z,10.77
2022-11-29T03:15:21.884Z,10.93
2022-11-29T03:18:16.809Z,10.40
2022-11-29T03:21:27.074Z,11.00
2022-11-29T03:23:58.741Z,9.27
2022-11-29T03:26:59.191Z,10.43
2022-11-29T03:29:44.116Z,9.50
2022-11-29T03:32:22.521Z,10.15
2022-11-29T03:34:56.916Z,10.65
2022-11-29T03:38:13.342Z,10.70
2022-11-29T03:41:02.253Z,10.77
2022-11-29T03:44:03.182Z,10.30
2022-11-29T03:46:52.805Z,9.52
2022-11-29T03:49:47.639Z,10.15
2022-11-29T03:52:51.970Z,10.15
2022-11-29T03:55:21.606Z,10.05
2022-11-29T03:58:20.175Z,9.65
2022-11-29T04:00:50.002Z,9.23
2022-11-29T04:03:33.226Z,9.48
2022-11-29T04:06:23.121Z,10.32
2022-11-29T04:09:22.879Z,10.18
2022-11-29T04:12:14.310Z,10.20
2022-11-29T04:15:03.172Z,8.90
2022-11-29T04:17:53.886Z,10.00
2022-11-29T04:20:55.391Z,9.73
2022-11-29T04:23:57.433Z,9.32
2022-11-29T04:26:35.161Z,8.77
2022-11-29T04:29:20.622Z,8.95
2022-11-29T04:32:05.916Z,9.32
2022-11-29T04:35:15.493Z,9.55
2022-11-29T04:38:07.130Z,9.00
2022-11-29T04:40:48.476Z,8.93
2022-11-29T04:43:45.929Z,8.95
2022-11-29T04:46:15.710Z,9.73
2022-11-29T04:49:14.868Z,10.77
2022-11-29T04:51:59.603Z,9.65
2022-11-29T04:54:55.367Z,10.52
2022-11-29T04:57:43.838Z,9.25
2022-11-29T05:00:13.861Z,9.55
2022-11-29T05:02:52.260Z,10.87
2022-11-29T05:05:29.782Z,9.70
2022-11-29T05:08:14.959Z,10.75
2022-11-29T05:11:26.779Z,9.77
2022-11-29T05:14:08.720Z,9.63
2022-11-29T05:17:00.835Z,9.95
2022-11-29T05:20:04.822Z,8.85
2022-11-29T05:22:46.225Z,9.10
2022-11-29T05:25:19.112Z,9.48
2022-11-29T05:27:57.882Z,10.05
2022-11-29T05:30:31.799Z,9.38
2022-11-29T05:33:22.915Z,9.43
2022-11-29T05:36:06.695Z,9.70
2022-11-29T05:38:50.222Z,9.52
2022-11-29T05:41:55.261Z,9.93
2022-11-29T05:44:50.610Z,9.02
2022-11-29T05:47:31.531Z,9.10
2022-11-29T05:50:09.532Z,10.13
2022-11-29T05:52:49.646Z,10.48
2022-11-29T05:55:31.905Z,9.83
2022-11-29T05:58:28.639Z,9.93
2022-11-29T06:01:16.912Z,10.20
2022-11-29T06:04:14.444Z,10.32
2022-11-29T06:06:47.721Z,9.20
2022-11-29T06:09:19.553Z,8.85
2022-11-29T06:11:50.555Z,10.48
2022-11-29T06:14:17.184Z,10.88
2022-11-29T06:16:56.889Z,10.05
2022-11-29T06:19:37.542Z,9.82
2022-11-29T06:22:35.564Z,10.32
2022-11-29T06:25:05.183Z,9.70
2022-11-29T06:27:57.530Z,9.63
2022-11-29T06:30:30.192Z,9.50
2022-11-29T06:33:25.443Z,10.85
2022-11-29T06:36:10.237Z,9.98
2022-11-29T06:38:37.363Z,10.45
2022-11-29T06:41:04.370Z,10.65
2022-11-29T06:43:31.523Z,10.55
2022-11-29T06:46:17.972Z,12.15
2022-11-29T06:49:07.303Z,11.85
2022-11-29T06:52:01.794Z,19.27
2022-11-29T06:54:49.464Z,13.20
2022-11-29T06:57:36.989Z,9.90
2022-11-29T07:00:08.879Z,11.70
2022-11-29T07:02:53.784Z,12.82
2022-11-29T07:05:35.976Z,14.30
2022-11-29T07:08:18.668Z,12.00
2022-11-29T07:10:49.332Z,12.60
2022-11-29T07:13:17.562Z,14.70
2022-11-29T07:16:26.068Z,14.50
2022-11-29T07:18:55.645Z,14.57
2022-11-29T07:21:47.114Z,16.05
2022-11-29T07:24:31.746Z,15.82
2022-11-29T07:27:13.486Z,13.98
2022-11-29T07:30:02.690Z,13.77
2022-11-29T07:32:50.366Z,14.60
2022-11-29T07:35:46.706Z,16.58
2022-11-29T07:38:20.790Z,13.77
2022-11-29T07:41:08.877Z,14.40
2022-11-29T07:44:01.185Z,14.13
2022-11-29T07:46:29.054Z,15.02
2022-11-29T07:48:55.811Z,14.35
2022-11-29T07:51:22.590Z,14.35
2022-11-29T07:53:49.342Z,15.35
2022-11-29T07:56:16.358Z,16.88
2022-11-29T07:58:43.372Z,14.77
2022-11-29T08:01:10.167Z,16.52
2022-11-29T08:03:36.890Z,16.65
2022-11-29T08:06:03.966Z,15.20
2022-11-29T08:08:30.614Z,15.10
2022-11-29T08:10:57.242Z,15.75
2022-11-29T08:13:23.988Z,15.20
2022-11-29T08:15:50.819Z,14.55
2022-11-29T08:18:17.727Z,13.60
2022-11-29T08:20:46.118Z,14.73
2022-11-29T08:23:13.846Z,13.60
2022-11-29T08:25:41.279Z,15.25
2022-11-29T08:28:08.163Z,13.88
2022-11-29T08:30:35.145Z,13.02
2022-11-29T08:33:01.803Z,13.13
2022-11-29T08:35:28.509Z,13.98
2022-11-29T08:37:55.382Z,12.38
2022-11-29T08:40:22.136Z,13.23
2022-11-29T08:42:48.876Z,12.30
2022-11-29T08:45:15.568Z,12.90
2022-11-29T08:47:42.880Z,12.73
2022-11-29T08:50:14.937Z,12.15
2022-11-29T08:53:02.597Z,12.02
2022-11-29T08:55:33.710Z,13.02
2022-11-29T08:58:03.232Z,12.65
2022-11-29T09:00:30.721Z,13.70
2022-11-29T09:03:17.356Z,13.35
2022-11-29T09:05:44.116Z,12.30
2022-11-29T09:08:10.909Z,12.80
2022-11-29T09:10:39.739Z,12.25
2022-11-29T09:13:07.532Z,12.18
2022-11-29T09:15:34.221Z,12.15
2022-11-29T09:18:00.926Z,13.07
2022-11-29T09:20:27.559Z,12.15
2022-11-29T09:22:54.316Z,12.90
2022-11-29T09:25:21.020Z,12.50
2022-11-29T09:27:47.684Z,12.88
2022-11-29T09:30:18.009Z,11.52
2022-11-29T09:32:47.374Z,12.20
2022-11-29T09:35:14.024Z,12.15
2022-11-29T09:37:43.745Z,12.63
2022-11-29T09:40:25.460Z,11.73
2022-11-29T09:43:16.155Z,12.20
2022-11-29T09:45:46.449Z,11.73
2022-11-29T09:48:28.367Z,10.40
2022-11-29T09:51:26.385Z,10.68
2022-11-29T09:54:28.315Z,10.93
2022-11-29T09:56:56.679Z,11.40
2022-11-29T09:59:37.358Z,11.55
2022-11-29T10:02:20.842Z,11.77
2022-11-29T10:04:57.225Z,11.32
2022-11-29T10:07:35.159Z,12.50
2022-11-29T10:10:15.193Z,11.02
2022-11-29T10:12:55.010Z,10.80
2022-11-29T10:15:31.663Z,10.93
2022-11-29T10:18:01.162Z,10.68
2022-11-29T10:20:35.365Z,10.70
2022-11-29T10:23:34.175Z,11.18
2022-11-29T10:26:01.157Z,11.05
2022-11-29T10:28:33.466Z,10.63
2022-11-29T10:31:13.188Z,11.02
2022-11-29T10:33:41.203Z,10.18
2022-11-29T10:36:36.044Z,11.65
2022-11-29T10:39:14.628Z,10.07
2022-11-29T10:41:41.597Z,9.43
2022-11-29T10:44:14.309Z,11.38
2022-11-29T10:46:41.288Z,10.77
2022-11-29T10:49:13.951Z,9.88
2022-11-29T10:51:40.656Z,9.65
2022-11-29T10:54:34.446Z,9.80
2022-11-29T10:57:02.018Z,10.57
2022-11-29T10:59:32.328Z,10.75
2022-11-29T11:02:00.470Z,8.55
2022-11-29T11:04:33.645Z,10.45
2022-11-29T11:07:02.718Z,10.05
2022-11-29T11:09:40.247Z,9.70
2022-11-29T11:12:16.234Z,8.93
2022-11-29T11:14:44.979Z,9.80
2022-11-29T11:17:26.340Z,10.00
2022-11-29T11:20:05.828Z,9.60
2022-11-29T11:22:34.000Z,9.50
2022-11-29T11:25:05.709Z,9.63
2022-11-29T11:27:36.001Z,8.43
2022-11-29T11:30:05.765Z,9.18
2022-11-29T11:32:32.558Z,10.35
2022-11-29T11:35:03.872Z,8.65
2022-11-29T11:37:32.645Z,10.00
2022-11-29T11:40:17.854Z,9.75
2022-11-29T11:42:45.032Z,10.20
2022-11-29T11:45:11.689Z,9.63
2022-11-29T11:47:47.688Z,9.27
2022-11-29T11:50:37.594Z,9.45
2022-11-29T11:53:25.291Z,9.52
2022-11-29T11:56:01.328Z,10.38
2022-11-29T11:58:56.150Z,9.38
2022-11-29T12:01:39.248Z,10.20
2022-11-29T12:04:26.625Z,10.23
2022-11-29T12:07:14.301Z,10.02
2022-11-29T12:09:47.837Z,10.60
2022-11-29T12:12:33.882Z,10.18
2022-11-29T12:15:16.316Z,8.80
2022-11-29T12:18:12.528Z,9.18
2022-11-29T12:20:40.912Z,10.48
2022-11-29T12:23:13.632Z,8.13
2022-11-29T12:25:52.734Z,7.65
2022-11-29T12:28:21.145Z,8.02
2022-11-29T12:31:28.095Z,8.50
2022-11-29T12:34:32.841Z,7.65
2022-11-29T12:37:18.307Z,8.68
2022-11-29T12:39:59.548Z,8.48
2022-11-29T12:43:03.687Z,8.75
2022-11-29T12:45:55.662Z,7.97
2022-11-29T12:48:42.361Z,8.70
2022-11-29T12:51:31.915Z,8.27
2022-11-29T12:54:14.081Z,7.78
2022-11-29T12:56:57.701Z,7.50
2022-11-29T12:59:55.281Z,8.35
2022-11-29T13:02:43.331Z,9.07
2022-11-29T13:05:17.869Z,8.90
2022-11-29T13:08:02.832Z,7.90
2022-11-29T13:10:53.869Z,8.23
2022-11-29T13:16:20.527Z,7.95
2022-11-29T13:19:20.662Z,7.70
2022-11-29T13:22:16.761Z,8.10
2022-11-29T13:24:53.528Z,8.02
2022-11-29T13:27:34.816Z,7.50
2022-11-29T13:30:02.206Z,7.65
2022-11-29T13:32:36.465Z,7.70
2022-11-29T13:35:25.138Z,6.70
2022-11-29T13:38:01.767Z,7.10
2022-11-29T13:40:39.981Z,7.88
2022-11-29T13:43:20.736Z,7.30
2022-11-29T13:45:56.336Z,7.03
2022-11-29T13:48:33.672Z,6.75
2022-11-29T13:51:33.949Z,7.30
2022-11-29T13:54:04.872Z,8.50
2022-11-29T13:59:48.427Z,5.03
2022-11-29T14:02:44.752Z,5.00
2022-11-29T14:05:25.929Z,4.93
2022-11-29T14:09:02.427Z,5.25
2022-11-29T14:11:43.514Z,7.00
2022-11-29T14:14:29.071Z,5.78
2022-11-29T14:17:05.081Z,5.75
2022-11-29T14:19:36.995Z,5.93
2022-11-29T14:22:06.611Z,5.78
2022-11-29T14:24:36.143Z,7.30
2022-11-29T14:27:14.631Z,6.45
2022-11-29T14:29:50.709Z,6.75
2022-11-29T14:32:56.370Z,6.72
2022-11-29T14:35:41.022Z,7.05
2022-11-29T14:38:19.373Z,6.82
2022-11-29T14:40:54.582Z,6.85
2022-11-29T14:43:29.449Z,7.07
2022-11-29T14:46:14.607Z,6.50
2022-11-29T14:48:57.253Z,7.78
2022-11-29T14:51:26.584Z,6.72
2022-11-29T14:54:14.619Z,7.20
2022-11-29T14:56:43.309Z,6.72
2022-11-29T14:59:47.764Z,7.20
2022-11-29T15:02:40.538Z,6.20
2022-11-29T15:05:15.693Z,6.95
2022-11-29T15:08:16.874Z,7.00
2022-11-29T15:10:55.856Z,6.47
2022-11-29T15:13:31.740Z,7.30
2022-11-29T15:16:39.982Z,6.70
2022-11-29T15:19:13.268Z,6.43
2022-11-29T15:22:06.464Z,7.15
2022-11-29T15:24:57.845Z,6.13
2022-11-29T15:27:24.629Z,6.00
2022-11-29T15:29:52.752Z,5.85
2022-11-29T15:32:26.366Z,6.35
2022-11-29T15:34:57.036Z,5.78
2022-11-29T15:37:37.272Z,6.18
2022-11-29T15:40:13.482Z,5.60
2022-11-29T15:42:43.460Z,5.35
2022-11-29T15:45:29.578Z,6.57
2022-11-29T15:48:30.498Z,5.60
2022-11-29T15:51:23.002Z,6.57
2022-11-29T15:54:17.622Z,5.18
2022-11-29T15:56:46.402Z,6.43
2022-11-29T15:59:39.799Z,7.30
2022-11-29T16:02:28.064Z,6.30
2022-11-29T16:05:02.961Z,6.65
2022-11-29T16:07:32.633Z,6.43
2022-11-29T16:10:04.821Z,7.35
2022-11-29T16:12:32.307Z,8.00
2022-11-29T16:15:01.035Z,6.75
2022-11-29T16:17:33.734Z,7.32
2022-11-29T16:20:24.136Z,8.30
2022-11-29T16:23:12.071Z,7.50
2022-11-29T16:26:01.140Z,8.50
2022-11-29T16:28:37.069Z,7.88
2022-11-29T16:31:04.938Z,7.93
2022-11-29T16:33:32.127Z,7.28
2022-11-29T16:36:29.490Z,7.82
2022-11-29T16:39:14.580Z,7.15
2022-11-29T16:41:41.279Z,7.65
2022-11-29T16:44:39.564Z,7.68
2022-11-29T16:47:23.917Z,7.68
2022-11-29T16:50:02.518Z,7.28
2022-11-29T16:52:31.593Z,8.80
2022-11-29T16:54:58.507Z,9.02
2022-11-29T16:57:27.190Z,9.20
2022-11-29T16:59:53.852Z,9.38
2022-11-29T17:02:20.597Z,8.45
2022-11-29T17:04:47.673Z,9.98
2022-11-29T17:07:36.371Z,9.40
2022-11-29T17:10:05.866Z,9.02
2022-11-29T17:12:32.509Z,10.45
2022-11-29T17:14:59.129Z,8.75
2022-11-29T17:17:26.023Z,9.52
2022-11-29T17:19:53.151Z,9.52
2022-11-29T17:22:19.793Z,9.88
2022-11-29T17:24:48.521Z,9.63
2022-11-29T17:27:15.544Z,9.45
2022-11-29T17:29:42.216Z,10.02
2022-11-29T17:32:08.957Z,8.52
2022-11-29T17:34:35.705Z,9.40
2022-11-29T17:37:02.373Z,10.13
2022-11-29T17:39:29.018Z,9.90
2022-11-29T17:41:55.654Z,10.23
2022-11-29T17:44:22.858Z,10.75
2022-11-29T17:46:49.629Z,8.93
2022-11-29T17:49:18.548Z,9.25
2022-11-29T17:51:53.478Z,8.95
2022-11-29T17:54:21.625Z,9.65
2022-11-29T17:56:48.345Z,8.35
2022-11-29T17:59:15.132Z,10.05
2022-11-29T18:01:41.903Z,9.35
2022-11-29T18:04:08.641Z,7.88
2022-11-29T18:06:37.569Z,7.95
2022-11-29T18:09:06.579Z,8.90
2022-11-29T18:11:49.082Z,7.70
2022-11-29T18:14:19.222Z,7.70
2022-11-29T18:16:46.123Z,8.10
2022-11-29T18:19:15.890Z,8.75
2022-11-29T18:21:42.918Z,7.68
2022-11-29T18:24:09.860Z,8.77
2022-11-29T18:26:37.851Z,9.07
2022-11-29T18:29:05.969Z,10.15
2022-11-29T18:31:38.026Z,9.68
2022-11-29T18:34:09.373Z,10.90
2022-11-29T18:36:39.100Z,8.27
2022-11-29T18:39:11.386Z,9.43
2022-11-29T18:41:38.505Z,10.63
2022-11-29T18:44:07.570Z,8.73
2022-11-29T18:46:37.047Z,10.52
2022-11-29T18:49:08.609Z,9.05
2022-11-29T18:51:36.558Z,9.73
2022-11-29T18:54:04.149Z,10.50
2022-11-29T18:56:32.757Z,9.82
2022-11-29T18:59:04.417Z,11.18
2022-11-29T19:01:33.947Z,10.85
2022-11-29T19:04:01.699Z,12.07
2022-11-29T19:06:39.284Z,12.77
2022-11-29T19:09:11.127Z,12.00
2022-11-29T19:11:38.001Z,12.18
2022-11-29T19:14:11.039Z,11.48
2022-11-29T19:16:38.563Z,14.00
2022-11-29T19:19:05.357Z,12.23
2022-11-29T19:21:34.177Z,13.98
2022-11-29T19:24:03.525Z,12.77
2022-11-29T19:26:31.927Z,15.75
2022-11-29T19:29:00.526Z,13.82
2022-11-29T19:31:27.492Z,15.23
2022-11-29T19:33:55.440Z,14.57
2022-11-29T19:36:27.797Z,13.35
2022-11-29T19:38:54.775Z,15.45
2022-11-29T19:41:24.199Z,15.07
2022-11-29T19:43:51.134Z,13.68
2022-11-29T19:46:19.701Z,14.88
2022-11-29T19:48:47.212Z,14.18
2022-11-29T19:51:18.142Z,15.57
2022-11-29T19:53:45.868Z,15.00
2022-11-29T19:56:16.769Z,13.93
2022-11-29T19:58:44.176Z,15.23
2022-11-29T20:01:16.667Z,14.77
2022-11-29T20:03:44.928Z,13.38
2022-11-29T20:06:13.374Z,14.65
2022-11-29T20:08:40.914Z,16.50
2022-11-29T20:11:10.078Z,15.20
2022-11-29T20:13:38.076Z,14.40
2022-11-29T20:16:08.832Z,14.43
2022-11-29T20:21:05.681Z,14.77
2022-11-29T20:23:32.631Z,14.23
2022-11-29T20:25:59.392Z,16.23
2022-11-29T20:28:26.699Z,15.85
2022-11-29T20:30:54.341Z,17.45
2022-11-29T20:33:25.570Z,16.52
2022-11-29T20:36:03.847Z,15.98
2022-11-29T20:38:43.860Z,14.73
2022-11-29T20:41:22.077Z,15.17
2022-11-29T20:43:55.622Z,15.30
2022-11-29T20:46:25.595Z,17.50
2022-11-29T20:48:53.424Z,16.00
2022-11-29T20:51:25.622Z,15.30
2022-11-29T20:53:52.346Z,16.05
2022-11-29T20:56:19.012Z,15.00
2022-11-29T20:58:45.740Z,15.15
2022-11-29T21:01:12.407Z,14.60
2022-11-29T21:03:39.161Z,14.82
2022-11-29T21:06:06.855Z,15.57
2022-11-29T21:08:34.401Z,14.95
2022-11-29T21:11:03.225Z,14.50
2022-11-29T21:13:30.201Z,13.35
2022-11-29T21:15:57.461Z,14.38
2022-11-29T21:18:27.050Z,16.58
2022-11-29T21:21:17.788Z,14.15
2022-11-29T21:23:55.188Z,13.77
2022-11-29T21:26:48.304Z,13.88
2022-11-29T21:29:17.745Z,13.82
2022-11-29T21:31:45.638Z,15.77
2022-11-29T21:34:12.427Z,13.45
2022-11-29T21:36:39.636Z,13.35
2022-11-29T21:39:08.195Z,14.38
2022-11-29T21:41:34.878Z,13.82
2022-11-29T21:44:09.115Z,16.05
2022-11-29T21:46:36.099Z,16.35
2022-11-29T21:49:02.843Z,14.65
2022-11-29T21:51:29.551Z,16.05
2022-11-29T21:53:56.322Z,14.60
2022-11-29T21:56:23.079Z,15.55
2022-11-29T21:58:49.777Z,14.80
2022-11-29T22:01:19.077Z,16.20
2022-11-29T22:03:46.124Z,16.58
2022-11-29T22:06:18.502Z,15.23
2022-11-29T22:08:45.212Z,15.52
2022-11-29T22:11:14.740Z,15.73
2022-11-29T22:14:01.901Z,16.75
2022-11-29T22:16:31.574Z,15.85
2022-11-29T22:18:58.309Z,17.48
2022-11-29T22:21:24.965Z,17.60
2022-11-29T22:23:52.757Z,16.52
2022-11-29T22:26:19.480Z,16.27
2022-11-29T22:28:46.143Z,16.08
2022-11-29T22:31:13.304Z,17.15
2022-11-29T22:33:40.068Z,15.73
2022-11-29T22:36:11.671Z,16.48
2022-11-29T22:38:39.336Z,16.25
2022-11-29T22:41:08.651Z,17.25
2022-11-29T22:43:36.403Z,16.13
2022-11-29T22:46:08.369Z,18.35
2022-11-29T22:48:39.025Z,16.38
2022-11-29T22:53:34.664Z,17.80
2022-11-29T22:56:03.001Z,17.55
2022-11-29T22:58:29.769Z,15.85
2022-11-29T23:01:20.388Z,18.08
2022-11-29T23:03:49.207Z,17.23
2022-11-29T23:06:18.231Z,16.90
2022-11-29T23:08:48.678Z,15.73
2022-11-29T23:11:18.346Z,15.80
2022-11-29T23:13:45.616Z,16.42
2022-11-29T23:16:18.782Z,15.65
2022-11-29T23:18:46.130Z,17.15
2022-11-29T23:21:16.758Z,15.38
2022-11-29T23:23:43.877Z,16.88
2022-11-29T23:26:19.395Z,16.15
2022-11-29T23:28:46.843Z,16.17
2022-11-29T23:31:14.282Z,16.17
2022-11-29T23:33:41.060Z,16.35
2022-11-29T23:36:09.555Z,17.33
2022-11-29T23:38:37.461Z,15.23
2022-11-29T23:41:05.095Z,16.27
2022-11-29T23:43:32.967Z,15.30
2022-11-29T23:46:00.380Z,14.88
2022-11-29T23:48:27.088Z,14.50
2022-11-29T23:50:53.854Z,13.77
2022-11-29T23:53:20.500Z,15.60
2022-11-29T23:55:58.250Z,14.55
2022-11-29T23:58:26.155Z,14.18
